sensor_id;sensor_type;location;lat;lon;timestamp;pressure;altitude;pressure_sealevel;temperature;humidity
74921;BME280;63483;47.384;8.860;2023-05-17T00:02:14;94789.44;;;7.42;51.57
74921;BME280;63483;47.384;8.860;2023-05-17T00:04:39;94784.06;;;7.44;51.96
74921;BME280;63483;47.384;8.860;2023-05-17T00:07:04;94789.13;;;7.45;51.91
74921;BME280;63483;47.384;8.860;2023-05-17T00:09:30;94786.22;;;7.48;51.87
74921;BME280;63483;47.384;8.860;2023-05-17T00:11:55;94793.06;;;7.49;51.97
74921;BME280;63483;47.384;8.860;2023-05-17T00:14:20;94796.31;;;7.51;51.76
74921;BME280;63483;47.384;8.860;2023-05-17T00:16:46;94795.34;;;7.52;52.07
74921;BME280;63483;47.384;8.860;2023-05-17T00:19:11;94798.91;;;7.51;51.86
74921;BME280;63483;47.384;8.860;2023-05-17T00:21:36;94797.13;;;7.52;51.91
74921;BME280;63483;47.384;8.860;2023-05-17T00:24:02;94793.72;;;7.51;51.77
74921;BME280;63483;47.384;8.860;2023-05-17T00:26:27;94791.75;;;7.53;51.94
74921;BME280;63483;47.384;8.860;2023-05-17T00:28:53;94790.13;;;7.52;51.78
74921;BME280;63483;47.384;8.860;2023-05-17T00:31:18;94793.56;;;7.53;51.89
74921;BME280;63483;47.384;8.860;2023-05-17T00:33:43;94789.13;;;7.53;51.83
74921;BME280;63483;47.384;8.860;2023-05-17T00:36:10;94789.31;;;7.52;51.74
74921;BME280;63483;47.384;8.860;2023-05-17T00:38:35;94792.75;;;7.52;51.84
74921;BME280;63483;47.384;8.860;2023-05-17T00:41:01;94788.50;;;7.51;51.58
74921;BME280;63483;47.384;8.860;2023-05-17T00:43:26;94793.06;;;7.49;51.67
74921;BME280;63483;47.384;8.860;2023-05-17T00:45:51;94791.41;;;7.48;51.92
74921;BME280;63483;47.384;8.860;2023-05-17T00:48:17;94795.16;;;7.46;52.00
74921;BME280;63483;47.384;8.860;2023-05-17T00:50:46;94793.34;;;7.46;52.10
74921;BME280;63483;47.384;8.860;2023-05-17T00:53:12;94782.91;;;7.46;51.81
74921;BME280;63483;47.384;8.860;2023-05-17T00:55:42;94784.88;;;7.44;51.75
74921;BME280;63483;47.384;8.860;2023-05-17T00:58:08;94786.84;;;7.42;50.93
74921;BME280;63483;47.384;8.860;2023-05-17T01:00:33;94786.09;;;7.23;51.26
74921;BME280;63483;47.384;8.860;2023-05-17T01:02:59;94788.03;;;7.21;51.47
74921;BME280;63483;47.384;8.860;2023-05-17T01:05:25;94795.00;;;7.13;50.39
74921;BME280;63483;47.384;8.860;2023-05-17T01:07:52;94790.25;;;7.08;50.96
74921;BME280;63483;47.384;8.860;2023-05-17T01:10:18;94789.22;;;7.01;50.23
74921;BME280;63483;47.384;8.860;2023-05-17T01:12:54;94791.16;;;6.99;50.17
74921;BME280;63483;47.384;8.860;2023-05-17T01:15:28;94795.06;;;6.95;50.68
74921;BME280;63483;47.384;8.860;2023-05-17T01:21:06;94801.94;;;6.78;50.54
74921;BME280;63483;47.384;8.860;2023-05-17T01:26:18;94797.50;;;6.70;50.86
74921;BME280;63483;47.384;8.860;2023-05-17T01:28:51;94801.16;;;6.59;50.95
74921;BME280;63483;47.384;8.860;2023-05-17T01:31:17;94800.75;;;6.72;50.11
74921;BME280;63483;47.384;8.860;2023-05-17T01:33:44;94797.78;;;6.67;49.86
74921;BME280;63483;47.384;8.860;2023-05-17T01:36:09;94797.56;;;6.60;50.53
74921;BME280;63483;47.384;8.860;2023-05-17T01:38:35;94799.22;;;6.61;49.54
74921;BME280;63483;47.384;8.860;2023-05-17T01:41:14;94793.41;;;6.67;49.11
74921;BME280;63483;47.384;8.860;2023-05-17T01:46:40;94790.69;;;6.51;49.29
74921;BME280;63483;47.384;8.860;2023-05-17T01:49:16;94806.00;;;6.36;48.08
74921;BME280;63483;47.384;8.860;2023-05-17T01:52:07;94794.69;;;6.45;49.78
74921;BME280;63483;47.384;8.860;2023-05-17T01:54:55;94793.81;;;6.55;50.41
74921;BME280;63483;47.384;8.860;2023-05-17T01:57:27;94795.59;;;6.54;49.96
74921;BME280;63483;47.384;8.860;2023-05-17T01:59:53;94797.41;;;6.62;49.78
74921;BME280;63483;47.384;8.860;2023-05-17T02:02:19;94789.09;;;6.58;49.60
74921;BME280;63483;47.384;8.860;2023-05-17T02:04:46;94804.13;;;6.64;50.07
74921;BME280;63483;47.384;8.860;2023-05-17T02:07:12;94803.16;;;6.65;50.00
74921;BME280;63483;47.384;8.860;2023-05-17T02:09:37;94802.84;;;6.68;50.36
74921;BME280;63483;47.384;8.860;2023-05-17T02:12:03;94797.19;;;6.73;50.59
74921;BME280;63483;47.384;8.860;2023-05-17T02:14:29;94796.56;;;6.79;50.60
74921;BME280;63483;47.384;8.860;2023-05-17T02:16:54;94803.13;;;6.83;50.02
74921;BME280;63483;47.384;8.860;2023-05-17T02:19:19;94801.78;;;6.79;49.20
74921;BME280;63483;47.384;8.860;2023-05-17T02:21:45;94805.31;;;6.70;49.53
74921;BME280;63483;47.384;8.860;2023-05-17T02:24:10;94804.34;;;6.71;49.58
74921;BME280;63483;47.384;8.860;2023-05-17T02:26:35;94804.03;;;6.74;49.54
74921;BME280;63483;47.384;8.860;2023-05-17T02:29:01;94801.13;;;6.77;50.13
74921;BME280;63483;47.384;8.860;2023-05-17T02:31:27;94810.06;;;6.75;49.47
74921;BME280;63483;47.384;8.860;2023-05-17T02:33:52;94804.03;;;6.74;49.45
74921;BME280;63483;47.384;8.860;2023-05-17T02:36:18;94814.53;;;6.64;49.59
74921;BME280;63483;47.384;8.860;2023-05-17T02:38:43;94816.00;;;6.67;49.60
74921;BME280;63483;47.384;8.860;2023-05-17T02:41:09;94810.13;;;6.65;50.42
74921;BME280;63483;47.384;8.860;2023-05-17T02:43:34;94803.81;;;6.67;50.63
74921;BME280;63483;47.384;8.860;2023-05-17T02:45:59;94810.50;;;6.70;50.62
74921;BME280;63483;47.384;8.860;2023-05-17T02:48:25;94804.34;;;6.71;50.55
74921;BME280;63483;47.384;8.860;2023-05-17T02:50:50;94807.75;;;6.72;50.34
74921;BME280;63483;47.384;8.860;2023-05-17T02:53:16;94799.94;;;6.72;50.65
74921;BME280;63483;47.384;8.860;2023-05-17T02:55:41;94805.94;;;6.72;50.19
74921;BME280;63483;47.384;8.860;2023-05-17T02:58:06;94805.44;;;6.68;50.37
74921;BME280;63483;47.384;8.860;2023-05-17T03:00:32;94809.53;;;6.71;50.88
74921;BME280;63483;47.384;8.860;2023-05-17T03:02:57;94812.81;;;6.73;50.82
74921;BME280;63483;47.384;8.860;2023-05-17T03:05:22;94816.06;;;6.75;50.97
74921;BME280;63483;47.384;8.860;2023-05-17T03:07:47;94810.56;;;6.78;51.32
74921;BME280;63483;47.384;8.860;2023-05-17T03:10:13;94817.25;;;6.81;50.79
74921;BME280;63483;47.384;8.860;2023-05-17T03:12:38;94814.63;;;6.81;51.30
74921;BME280;63483;47.384;8.860;2023-05-17T03:15:04;94819.03;;;6.80;50.83
74921;BME280;63483;47.384;8.860;2023-05-17T03:17:29;94817.25;;;6.81;51.11
74921;BME280;63483;47.384;8.860;2023-05-17T03:19:55;94819.69;;;6.82;51.26
74921;BME280;63483;47.384;8.860;2023-05-17T03:22:20;94826.84;;;6.80;51.20
74921;BME280;63483;47.384;8.860;2023-05-17T03:24:46;94829.47;;;6.80;51.23
74921;BME280;63483;47.384;8.860;2023-05-17T03:27:11;94822.59;;;6.79;51.11
74921;BME280;63483;47.384;8.860;2023-05-17T03:29:37;94832.22;;;6.79;50.51
74921;BME280;63483;47.384;8.860;2023-05-17T03:32:02;94828.81;;;6.78;50.71
74921;BME280;63483;47.384;8.860;2023-05-17T03:34:27;94842.94;;;6.76;50.86
74921;BME280;63483;47.384;8.860;2023-05-17T03:36:53;94838.53;;;6.76;50.08
74921;BME280;63483;47.384;8.860;2023-05-17T03:39:18;94844.66;;;6.67;49.17
74921;BME280;63483;47.384;8.860;2023-05-17T03:41:43;94842.47;;;6.26;46.24
74921;BME280;63483;47.384;8.860;2023-05-17T03:44:09;94845.47;;;5.58;44.28
74921;BME280;63483;47.384;8.860;2023-05-17T03:46:34;94842.09;;;5.00;43.96
74921;BME280;63483;47.384;8.860;2023-05-17T03:48:59;94850.03;;;4.69;44.81
74921;BME280;63483;47.384;8.860;2023-05-17T03:51:25;94844.44;;;4.25;45.43
74921;BME280;63483;47.384;8.860;2023-05-17T03:53:57;94846.50;;;4.12;44.70
74921;BME280;63483;47.384;8.860;2023-05-17T03:56:22;94846.06;;;3.87;45.45
74921;BME280;63483;47.384;8.860;2023-05-17T03:58:47;94844.97;;;3.99;49.15
74921;BME280;63483;47.384;8.860;2023-05-17T04:01:13;94848.25;;;4.01;45.62
74921;BME280;63483;47.384;8.860;2023-05-17T04:03:38;94852.66;;;4.11;45.44
74921;BME280;63483;47.384;8.860;2023-05-17T04:06:04;94848.84;;;4.15;43.76
74921;BME280;63483;47.384;8.860;2023-05-17T04:08:33;94850.16;;;3.99;43.99
74921;BME280;63483;47.384;8.860;2023-05-17T04:10:59;94848.50;;;3.88;42.76
74921;BME280;63483;47.384;8.860;2023-05-17T04:13:34;94853.03;;;3.96;47.50
74921;BME280;63483;47.384;8.860;2023-05-17T04:16:00;94852.09;;;4.17;49.62
74921;BME280;63483;47.384;8.860;2023-05-17T04:18:25;94852.63;;;4.20;44.00
74921;BME280;63483;47.384;8.860;2023-05-17T04:20:51;94845.53;;;4.13;45.05
74921;BME280;63483;47.384;8.860;2023-05-17T04:23:16;94844.72;;;4.02;43.58
74921;BME280;63483;47.384;8.860;2023-05-17T04:25:42;94854.03;;;4.15;44.56
74921;BME280;63483;47.384;8.860;2023-05-17T04:28:07;94851.84;;;4.39;48.21
74921;BME280;63483;47.384;8.860;2023-05-17T04:30:33;94859.38;;;4.62;49.59
74921;BME280;63483;47.384;8.860;2023-05-17T04:32:58;94865.22;;;4.74;49.48
74921;BME280;63483;47.384;8.860;2023-05-17T04:35:24;94859.22;;;4.54;55.57
74921;BME280;63483;47.384;8.860;2023-05-17T04:37:49;94866.69;;;4.76;51.62
74921;BME280;63483;47.384;8.860;2023-05-17T04:40:15;94863.69;;;4.91;50.56
74921;BME280;63483;47.384;8.860;2023-05-17T04:42:40;94864.66;;;5.00;50.10
74921;BME280;63483;47.384;8.860;2023-05-17T04:45:06;94863.28;;;5.05;49.25
74921;BME280;63483;47.384;8.860;2023-05-17T04:47:31;94861.34;;;5.07;49.20
74921;BME280;63483;47.384;8.860;2023-05-17T04:49:56;94863.28;;;5.05;49.53
74921;BME280;63483;47.384;8.860;2023-05-17T04:52:22;94866.16;;;5.02;48.59
74921;BME280;63483;47.384;8.860;2023-05-17T04:54:47;94869.72;;;5.01;49.38
74921;BME280;63483;47.384;8.860;2023-05-17T04:57:12;94872.53;;;5.18;48.30
74921;BME280;63483;47.384;8.860;2023-05-17T04:59:39;94874.91;;;5.01;48.63
74921;BME280;63483;47.384;8.860;2023-05-17T05:02:04;94872.84;;;5.05;48.83
74921;BME280;63483;47.384;8.860;2023-05-17T05:04:30;94869.81;;;5.09;48.58
74921;BME280;63483;47.384;8.860;2023-05-17T05:06:56;94867.78;;;5.03;47.24
74921;BME280;63483;47.384;8.860;2023-05-17T05:09:21;94870.81;;;4.89;48.09
74921;BME280;63483;47.384;8.860;2023-05-17T05:11:46;94871.09;;;4.86;48.55
74921;BME280;63483;47.384;8.860;2023-05-17T05:14:12;94881.72;;;4.83;48.12
74921;BME280;63483;47.384;8.860;2023-05-17T05:16:37;94881.03;;;4.90;48.52
74921;BME280;63483;47.384;8.860;2023-05-17T05:19:02;94884.88;;;4.96;48.07
74921;BME280;63483;47.384;8.860;2023-05-17T05:21:29;94875.47;;;4.95;47.34
74921;BME280;63483;47.384;8.860;2023-05-17T05:23:54;94879.81;;;4.75;48.03
74921;BME280;63483;47.384;8.860;2023-05-17T05:26:20;94886.38;;;4.89;47.76
74921;BME280;63483;47.384;8.860;2023-05-17T05:28:45;94888.41;;;4.85;47.25
74921;BME280;63483;47.384;8.860;2023-05-17T05:31:10;94893.88;;;5.02;48.30
74921;BME280;63483;47.384;8.860;2023-05-17T05:33:36;94892.50;;;5.07;47.76
74921;BME280;63483;47.384;8.860;2023-05-17T05:36:01;94888.97;;;4.89;47.90
74921;BME280;63483;47.384;8.860;2023-05-17T05:38:26;94887.59;;;5.04;46.76
74921;BME280;63483;47.384;8.860;2023-05-17T05:40:52;94893.34;;;4.78;48.70
74921;BME280;63483;47.384;8.860;2023-05-17T05:43:17;94902.22;;;5.05;46.97
74921;BME280;63483;47.384;8.860;2023-05-17T05:45:43;94895.63;;;5.21;46.65
74921;BME280;63483;47.384;8.860;2023-05-17T05:48:14;94903.19;;;5.04;47.07
74921;BME280;63483;47.384;8.860;2023-05-17T05:50:41;94896.56;;;5.20;46.96
74921;BME280;63483;47.384;8.860;2023-05-17T05:53:07;94903.41;;;5.21;48.21
74921;BME280;63483;47.384;8.860;2023-05-17T05:55:33;94908.81;;;5.47;46.67
74921;BME280;63483;47.384;8.860;2023-05-17T05:57:58;94910.50;;;5.38;47.35
74921;BME280;63483;47.384;8.860;2023-05-17T06:00:23;94915.34;;;5.04;47.55
74921;BME280;63483;47.384;8.860;2023-05-17T06:02:49;94908.09;;;5.17;47.54
74921;BME280;63483;47.384;8.860;2023-05-17T06:05:14;94921.75;;;4.70;46.10
74921;BME280;63483;47.384;8.860;2023-05-17T06:07:39;94919.03;;;4.62;47.33
74921;BME280;63483;47.384;8.860;2023-05-17T06:10:05;94925.03;;;4.92;47.50
74921;BME280;63483;47.384;8.860;2023-05-17T06:12:31;94928.03;;;4.58;47.85
74921;BME280;63483;47.384;8.860;2023-05-17T06:14:56;94922.56;;;4.61;46.02
74921;BME280;63483;47.384;8.860;2023-05-17T06:17:22;94922.31;;;4.74;47.47
74921;BME280;63483;47.384;8.860;2023-05-17T06:19:47;94934.06;;;4.68;46.48
74921;BME280;63483;47.384;8.860;2023-05-17T06:22:13;94926.78;;;4.33;47.69
74921;BME280;63483;47.384;8.860;2023-05-17T06:24:39;94924.78;;;4.75;48.42
74921;BME280;63483;47.384;8.860;2023-05-17T06:27:04;94931.56;;;4.57;47.76
74921;BME280;63483;47.384;8.860;2023-05-17T06:29:31;94937.31;;;4.90;48.32
74921;BME280;63483;47.384;8.860;2023-05-17T06:31:56;94939.34;;;4.57;48.39
74921;BME280;63483;47.384;8.860;2023-05-17T06:34:24;94938.22;;;4.30;46.40
74921;BME280;63483;47.384;8.860;2023-05-17T06:36:49;94941.16;;;4.86;48.79
74921;BME280;63483;47.384;8.860;2023-05-17T06:39:14;94940.06;;;4.69;48.76
74921;BME280;63483;47.384;8.860;2023-05-17T06:41:40;94938.56;;;4.56;48.94
74921;BME280;63483;47.384;8.860;2023-05-17T06:44:05;94944.97;;;4.82;48.98
74921;BME280;63483;47.384;8.860;2023-05-17T06:46:31;94940.59;;;4.92;45.32
74921;BME280;63483;47.384;8.860;2023-05-17T06:48:56;94945.34;;;4.38;49.63
74921;BME280;63483;47.384;8.860;2023-05-17T06:51:22;94946.59;;;4.83;48.55
74921;BME280;63483;47.384;8.860;2023-05-17T06:53:47;94946.38;;;5.05;48.64
74921;BME280;63483;47.384;8.860;2023-05-17T06:56:13;94953.19;;;5.06;50.72
74921;BME280;63483;47.384;8.860;2023-05-17T06:58:38;94935.97;;;5.05;48.23
74921;BME280;63483;47.384;8.860;2023-05-17T07:01:04;94950.44;;;4.78;49.71
74921;BME280;63483;47.384;8.860;2023-05-17T07:03:30;94953.72;;;5.20;47.92
74921;BME280;63483;47.384;8.860;2023-05-17T07:05:55;94954.53;;;5.10;47.54
74921;BME280;63483;47.384;8.860;2023-05-17T07:08:20;94952.38;;;5.16;48.76
74921;BME280;63483;47.384;8.860;2023-05-17T07:10:46;94955.22;;;4.73;46.90
74921;BME280;63483;47.384;8.860;2023-05-17T07:13:11;94956.16;;;4.43;48.75
74921;BME280;63483;47.384;8.860;2023-05-17T07:15:36;94945.53;;;4.75;44.47
74921;BME280;63483;47.384;8.860;2023-05-17T07:18:03;94960.56;;;5.01;49.33
74921;BME280;63483;47.384;8.860;2023-05-17T07:20:28;94960.69;;;5.09;49.04
74921;BME280;63483;47.384;8.860;2023-05-17T07:22:53;94960.94;;;5.45;47.65
74921;BME280;63483;47.384;8.860;2023-05-17T07:25:19;94970.38;;;5.46;48.24
74921;BME280;63483;47.384;8.860;2023-05-17T07:27:45;94964.66;;;5.13;47.38
74921;BME280;63483;47.384;8.860;2023-05-17T07:30:11;94971.31;;;5.93;46.05
74921;BME280;63483;47.384;8.860;2023-05-17T07:32:36;94963.22;;;5.58;47.58
74921;BME280;63483;47.384;8.860;2023-05-17T07:35:02;94975.66;;;5.55;47.39
74921;BME280;63483;47.384;8.860;2023-05-17T07:37:27;94961.03;;;5.54;47.57
74921;BME280;63483;47.384;8.860;2023-05-17T07:39:53;94970.09;;;5.50;47.91
74921;BME280;63483;47.384;8.860;2023-05-17T07:42:18;94968.53;;;5.57;46.67
74921;BME280;63483;47.384;8.860;2023-05-17T07:44:43;94963.91;;;5.51;46.94
74921;BME280;63483;47.384;8.860;2023-05-17T07:47:09;94967.91;;;5.35;46.97
74921;BME280;63483;47.384;8.860;2023-05-17T07:49:34;94959.34;;;5.72;47.24
74921;BME280;63483;47.384;8.860;2023-05-17T07:51:59;94969.28;;;5.87;45.38
74921;BME280;63483;47.384;8.860;2023-05-17T07:54:26;94971.56;;;5.99;45.21
74921;BME280;63483;47.384;8.860;2023-05-17T07:56:52;94971.69;;;5.70;46.52
74921;BME280;63483;47.384;8.860;2023-05-17T07:59:22;94969.19;;;5.69;46.51
74921;BME280;63483;47.384;8.860;2023-05-17T08:01:48;94976.34;;;5.57;46.70
74921;BME280;63483;47.384;8.860;2023-05-17T08:04:13;94977.38;;;5.83;45.88
74921;BME280;63483;47.384;8.860;2023-05-17T08:06:40;94981.13;;;5.61;45.85
74921;BME280;63483;47.384;8.860;2023-05-17T08:09:06;94987.06;;;5.34;46.96
74921;BME280;63483;47.384;8.860;2023-05-17T08:11:31;94983.88;;;5.40;47.26
74921;BME280;63483;47.384;8.860;2023-05-17T08:13:59;94991.25;;;5.64;45.86
74921;BME280;63483;47.384;8.860;2023-05-17T08:16:24;94993.38;;;5.79;45.65
74921;BME280;63483;47.384;8.860;2023-05-17T08:18:50;94994.63;;;5.75;45.96
74921;BME280;63483;47.384;8.860;2023-05-17T08:21:16;94991.38;;;5.63;46.41
74921;BME280;63483;47.384;8.860;2023-05-17T08:23:44;94999.59;;;5.58;46.87
74921;BME280;63483;47.384;8.860;2023-05-17T08:26:10;94999.63;;;5.48;46.68
74921;BME280;63483;47.384;8.860;2023-05-17T08:28:37;95009.06;;;5.50;45.59
74921;BME280;63483;47.384;8.860;2023-05-17T08:31:02;94993.19;;;5.33;46.36
74921;BME280;63483;47.384;8.860;2023-05-17T08:33:28;95004.47;;;5.71;44.83
74921;BME280;63483;47.384;8.860;2023-05-17T08:35:53;95009.81;;;5.79;44.77
74921;BME280;63483;47.384;8.860;2023-05-17T08:38:20;95009.72;;;5.42;46.17
74921;BME280;63483;47.384;8.860;2023-05-17T08:40:55;95013.06;;;5.24;47.80
74921;BME280;63483;47.384;8.860;2023-05-17T08:43:21;95012.72;;;5.57;46.48
74921;BME280;63483;47.384;8.860;2023-05-17T08:45:50;95012.38;;;5.89;45.51
74921;BME280;63483;47.384;8.860;2023-05-17T08:48:17;95006.34;;;5.98;45.58
74921;BME280;63483;47.384;8.860;2023-05-17T08:50:45;95017.84;;;5.86;45.76
74921;BME280;63483;47.384;8.860;2023-05-17T08:53:12;94998.09;;;6.03;44.25
74921;BME280;63483;47.384;8.860;2023-05-17T08:55:39;95004.53;;;5.99;44.75
74921;BME280;63483;47.384;8.860;2023-05-17T08:58:09;95001.66;;;6.02;44.80
74921;BME280;63483;47.384;8.860;2023-05-17T09:00:36;95008.53;;;5.93;45.50
74921;BME280;63483;47.384;8.860;2023-05-17T09:03:01;95003.59;;;6.00;43.87
74921;BME280;63483;47.384;8.860;2023-05-17T09:05:27;94999.78;;;5.85;44.62
74921;BME280;63483;47.384;8.860;2023-05-17T09:07:53;95011.78;;;6.05;43.36
74921;BME280;63483;47.384;8.860;2023-05-17T09:10:18;95006.84;;;6.02;42.99
74921;BME280;63483;47.384;8.860;2023-05-17T09:12:45;95015.72;;;5.62;44.21
74921;BME280;63483;47.384;8.860;2023-05-17T09:15:16;95011.53;;;5.98;43.85
74921;BME280;63483;47.384;8.860;2023-05-17T09:17:42;95013.66;;;6.13;44.54
74921;BME280;63483;47.384;8.860;2023-05-17T09:20:08;94995.09;;;5.98;44.19
74921;BME280;63483;47.384;8.860;2023-05-17T09:22:34;95010.34;;;5.83;43.97
74921;BME280;63483;47.384;8.860;2023-05-17T09:25:01;95026.59;;;6.32;43.51
74921;BME280;63483;47.384;8.860;2023-05-17T09:27:30;95015.06;;;6.07;43.40
74921;BME280;63483;47.384;8.860;2023-05-17T09:29:55;95019.22;;;5.80;44.24
74921;BME280;63483;47.384;8.860;2023-05-17T09:32:22;95013.25;;;6.17;44.06
74921;BME280;63483;47.384;8.860;2023-05-17T09:34:49;95012.75;;;6.32;43.56
74921;BME280;63483;47.384;8.860;2023-05-17T09:37:17;95005.22;;;6.01;44.41
74921;BME280;63483;47.384;8.860;2023-05-17T09:39:43;95007.28;;;6.81;42.87
74921;BME280;63483;47.384;8.860;2023-05-17T09:42:10;95017.31;;;6.58;44.02
74921;BME280;63483;47.384;8.860;2023-05-17T09:44:52;95006.69;;;6.87;42.04
74921;BME280;63483;47.384;8.860;2023-05-17T09:47:26;95024.72;;;6.52;42.87
74921;BME280;63483;47.384;8.860;2023-05-17T09:49:54;95022.19;;;6.33;43.32
74921;BME280;63483;47.384;8.860;2023-05-17T09:52:20;95027.03;;;6.83;43.49
74921;BME280;63483;47.384;8.860;2023-05-17T09:54:56;95015.25;;;6.79;42.97
74921;BME280;63483;47.384;8.860;2023-05-17T09:57:24;95026.66;;;6.78;43.12
74921;BME280;63483;47.384;8.860;2023-05-17T09:59:50;95024.56;;;7.18;43.68
74921;BME280;63483;47.384;8.860;2023-05-17T10:02:25;95026.53;;;7.16;42.44
74921;BME280;63483;47.384;8.860;2023-05-17T10:04:51;95027.09;;;7.46;41.67
74921;BME280;63483;47.384;8.860;2023-05-17T10:07:19;95024.63;;;7.62;41.05
74921;BME280;63483;47.384;8.860;2023-05-17T10:09:48;95025.38;;;7.54;41.16
74921;BME280;63483;47.384;8.860;2023-05-17T10:12:17;95026.13;;;7.65;40.66
74921;BME280;63483;47.384;8.860;2023-05-17T10:14:43;95031.94;;;7.58;40.83
74921;BME280;63483;47.384;8.860;2023-05-17T10:17:09;95022.41;;;7.49;41.31
74921;BME280;63483;47.384;8.860;2023-05-17T10:19:36;95016.44;;;7.57;41.64
74921;BME280;63483;47.384;8.860;2023-05-17T10:22:02;95024.28;;;7.83;40.13
74921;BME280;63483;47.384;8.860;2023-05-17T10:24:29;95021.50;;;7.58;41.86
74921;BME280;63483;47.384;8.860;2023-05-17T10:26:56;95020.31;;;7.71;39.85
74921;BME280;63483;47.384;8.860;2023-05-17T10:29:22;95011.53;;;7.36;41.35
74921;BME280;63483;47.384;8.860;2023-05-17T10:31:49;95024.75;;;7.61;40.62
74921;BME280;63483;47.384;8.860;2023-05-17T10:34:15;95021.41;;;7.86;39.89
74921;BME280;63483;47.384;8.860;2023-05-17T10:36:45;95013.75;;;7.67;40.45
74921;BME280;63483;47.384;8.860;2023-05-17T10:39:12;95019.22;;;7.37;41.34
74921;BME280;63483;47.384;8.860;2023-05-17T10:41:41;95021.91;;;7.10;41.24
74921;BME280;63483;47.384;8.860;2023-05-17T10:44:11;95023.56;;;7.29;41.57
74921;BME280;63483;47.384;8.860;2023-05-17T10:46:38;95032.53;;;7.16;41.42
74921;BME280;63483;47.384;8.860;2023-05-17T10:49:03;95017.66;;;7.27;41.37
74921;BME280;63483;47.384;8.860;2023-05-17T10:54:09;95023.03;;;7.07;39.88
74921;BME280;63483;47.384;8.860;2023-05-17T10:56:40;95019.91;;;7.21;40.70
74921;BME280;63483;47.384;8.860;2023-05-17T10:59:25;95028.75;;;7.11;41.11
74921;BME280;63483;47.384;8.860;2023-05-17T11:02:05;95028.47;;;7.14;42.20
74921;BME280;63483;47.384;8.860;2023-05-17T11:04:41;95018.09;;;7.04;40.88
74921;BME280;63483;47.384;8.860;2023-05-17T11:10:12;95011.69;;;6.80;40.76
74921;BME280;63483;47.384;8.860;2023-05-17T11:12:45;95029.72;;;6.92;41.82
74921;BME280;63483;47.384;8.860;2023-05-17T11:15:14;95018.09;;;7.04;39.47
74921;BME280;63483;47.384;8.860;2023-05-17T11:22:41;95007.31;;;7.35;38.63
74921;BME280;63483;47.384;8.860;2023-05-17T11:25:10;95017.47;;;7.46;40.70
74921;BME280;63483;47.384;8.860;2023-05-17T11:27:46;95021.63;;;7.13;40.71
74921;BME280;63483;47.384;8.860;2023-05-17T11:30:23;95019.94;;;7.48;40.30
74921;BME280;63483;47.384;8.860;2023-05-17T11:33:05;95021.81;;;7.55;40.59
74921;BME280;63483;47.384;8.860;2023-05-17T11:35:33;95020.00;;;7.74;40.27
74921;BME280;63483;47.384;8.860;2023-05-17T11:38:13;95023.56;;;7.73;40.97
74921;BME280;63483;47.384;8.860;2023-05-17T11:40:39;95022.06;;;7.88;39.40
74921;BME280;63483;47.384;8.860;2023-05-17T11:43:12;95017.63;;;7.89;39.85
74921;BME280;63483;47.384;8.860;2023-05-17T11:45:41;95014.31;;;8.05;39.60
74921;BME280;63483;47.384;8.860;2023-05-17T11:48:07;95027.66;;;8.02;39.80
74921;BME280;63483;47.384;8.860;2023-05-17T11:50:35;95014.06;;;8.16;39.42
74921;BME280;63483;47.384;8.860;2023-05-17T11:53:02;95019.97;;;8.26;38.90
74921;BME280;63483;47.384;8.860;2023-05-17T11:55:28;95016.81;;;8.49;38.90
74921;BME280;63483;47.384;8.860;2023-05-17T11:57:55;95006.09;;;8.60;38.68
74921;BME280;63483;47.384;8.860;2023-05-17T12:00:23;95012.88;;;8.45;39.88
74921;BME280;63483;47.384;8.860;2023-05-17T12:02:51;95022.34;;;8.46;37.75
74921;BME280;63483;47.384;8.860;2023-05-17T12:05:19;95021.44;;;8.63;38.42
74921;BME280;63483;47.384;8.860;2023-05-17T12:07:46;95018.81;;;8.72;38.49
74921;BME280;63483;47.384;8.860;2023-05-17T12:10:13;95006.13;;;8.77;37.72
74921;BME280;63483;47.384;8.860;2023-05-17T12:12:39;95017.06;;;8.72;38.19
74921;BME280;63483;47.384;8.860;2023-05-17T12:15:06;95011.94;;;8.62;38.01
74921;BME280;63483;47.384;8.860;2023-05-17T12:17:36;95011.66;;;8.74;37.98
74921;BME280;63483;47.384;8.860;2023-05-17T12:20:08;95005.50;;;8.91;38.32
74921;BME280;63483;47.384;8.860;2023-05-17T12:22:50;94994.41;;;8.89;37.21
74921;BME280;63483;47.384;8.860;2023-05-17T12:25:22;95001.28;;;9.15;38.11
74921;BME280;63483;47.384;8.860;2023-05-17T12:27:58;95007.19;;;9.17;36.98
74921;BME280;63483;47.384;8.860;2023-05-17T12:30:36;95012.44;;;9.33;37.65
74921;BME280;63483;47.384;8.860;2023-05-17T12:33:01;95004.41;;;9.19;36.42
74921;BME280;63483;47.384;8.860;2023-05-17T12:35:27;94997.41;;;9.44;36.79
74921;BME280;63483;47.384;8.860;2023-05-17T12:37:52;95000.66;;;9.29;37.54
74921;BME280;63483;47.384;8.860;2023-05-17T12:40:18;95002.31;;;9.30;35.78
74921;BME280;63483;47.384;8.860;2023-05-17T12:42:43;95006.88;;;9.37;37.24
74921;BME280;63483;47.384;8.860;2023-05-17T12:45:09;94997.38;;;9.36;36.06
74921;BME280;63483;47.384;8.860;2023-05-17T12:47:37;95002.78;;;9.26;35.67
74921;BME280;63483;47.384;8.860;2023-05-17T12:50:02;95014.06;;;9.35;36.46
74921;BME280;63483;47.384;8.860;2023-05-17T12:52:33;95004.56;;;9.25;35.60
74921;BME280;63483;47.384;8.860;2023-05-17T12:55:02;95002.28;;;8.97;36.67
74921;BME280;63483;47.384;8.860;2023-05-17T12:57:28;94991.16;;;8.87;36.36
74921;BME280;63483;47.384;8.860;2023-05-17T12:59:54;95000.59;;;8.88;36.38
74921;BME280;63483;47.384;8.860;2023-05-17T13:02:19;94992.31;;;9.01;37.24
74921;BME280;63483;47.384;8.860;2023-05-17T13:04:45;95000.31;;;9.00;37.35
74921;BME280;63483;47.384;8.860;2023-05-17T13:07:11;95000.38;;;8.73;36.46
74921;BME280;63483;47.384;8.860;2023-05-17T13:09:45;94998.63;;;8.82;36.66
74921;BME280;63483;47.384;8.860;2023-05-17T13:12:21;94999.63;;;8.89;36.52
74921;BME280;63483;47.384;8.860;2023-05-17T13:14:49;95001.63;;;9.12;36.14
74921;BME280;63483;47.384;8.860;2023-05-17T13:17:33;95003.09;;;9.14;36.92
74921;BME280;63483;47.384;8.860;2023-05-17T13:19:59;94998.53;;;9.25;35.72
74921;BME280;63483;47.384;8.860;2023-05-17T13:22:25;95001.31;;;9.07;36.69
74921;BME280;63483;47.384;8.860;2023-05-17T13:24:50;94998.19;;;9.03;36.04
74921;BME280;63483;47.384;8.860;2023-05-17T13:27:16;94995.41;;;9.05;35.49
74921;BME280;63483;47.384;8.860;2023-05-17T13:29:42;94991.50;;;9.01;35.38